sensor_id;sensor_type;location;lat;lon;timestamp;P1;durP1;ratioP1;P2;durP2;ratioP2
4057;SDS011;2044;48.692;9.020;2023-06-26T00:00:02;11.67;;;10.23;;
4057;SDS011;2044;48.692;9.020;2023-06-26T00:02:30;12.57;;;10.87;;
4057;SDS011;2044;48.692;9.020;2023-06-26T00:04:57;11.93;;;10.17;;
4057;SDS011;2044;48.692;9.020;2023-06-26T00:07:27;11.00;;;9.70;;
4057;SDS011;2044;48.692;9.020;2023-06-26T00:09:54;11.07;;;9.93;;
4057;SDS011;2044;48.692;9.020;2023-06-26T00:12:20;10.97;;;9.83;;
4057;SDS011;2044;48.692;9.020;2023-06-26T00:14:48;11.67;;;10.57;;
4057;SDS011;2044;48.692;9.020;2023-06-26T00:17:15;10.87;;;9.50;;
4057;SDS011;2044;48.692;9.020;2023-06-26T00:19:42;12.07;;;9.90;;
4057;SDS011;2044;48.692;9.020;2023-06-26T00:22:09;11.83;;;9.97;;
4057;SDS011;2044;48.692;9.020;2023-06-26T00:24:35;14.07;;;9.60;;
4057;SDS011;2044;48.692;9.020;2023-06-26T00:27:03;11.10;;;9.60;;
4057;SDS011;2044;48.692;9.020;2023-06-26T00:29:29;12.37;;;9.77;;
4057;SDS011;2044;48.692;9.020;2023-06-26T00:31:59;11.27;;;8.90;;
4057;SDS011;2044;48.692;9.020;2023-06-26T00:34:25;10.47;;;8.53;;
4057;SDS011;2044;48.692;9.020;2023-06-26T00:36:52;10.00;;;8.30;;
4057;SDS011;2044;48.692;9.020;2023-06-26T00:39:19;9.07;;;8.00;;
4057;SDS011;2044;48.692;9.020;2023-06-26T00:41:46;10.93;;;8.73;;
4057;SDS011;2044;48.692;9.020;2023-06-26T00:44:12;11.50;;;7.90;;
4057;SDS011;2044;48.692;9.020;2023-06-26T00:46:39;9.10;;;7.93;;
4057;SDS011;2044;48.692;9.020;2023-06-26T00:49:07;10.73;;;8.17;;
4057;SDS011;2044;48.692;9.020;2023-06-26T00:51:34;11.13;;;8.40;;
4057;SDS011;2044;48.692;9.020;2023-06-26T00:54:01;11.83;;;8.07;;
4057;SDS011;2044;48.692;9.020;2023-06-26T00:56:29;11.47;;;8.10;;
4057;SDS011;2044;48.692;9.020;2023-06-26T00:58:57;12.00;;;8.40;;
4057;SDS011;2044;48.692;9.020;2023-06-26T01:01:24;9.70;;;7.30;;
4057;SDS011;2044;48.692;9.020;2023-06-26T01:03:51;12.63;;;8.13;;
4057;SDS011;2044;48.692;9.020;2023-06-26T01:06:21;9.47;;;7.37;;
4057;SDS011;2044;48.692;9.020;2023-06-26T01:08:49;11.27;;;7.97;;
4057;SDS011;2044;48.692;9.020;2023-06-26T01:11:17;11.00;;;7.47;;
4057;SDS011;2044;48.692;9.020;2023-06-26T01:13:44;10.40;;;7.03;;
4057;SDS011;2044;48.692;9.020;2023-06-26T01:16:11;10.07;;;7.20;;
4057;SDS011;2044;48.692;9.020;2023-06-26T01:18:39;10.63;;;7.60;;
4057;SDS011;2044;48.692;9.020;2023-06-26T01:21:07;9.27;;;7.60;;
4057;SDS011;2044;48.692;9.020;2023-06-26T01:23:37;11.63;;;6.90;;
4057;SDS011;2044;48.692;9.020;2023-06-26T01:26:12;12.90;;;8.73;;
4057;SDS011;2044;48.692;9.020;2023-06-26T01:28:42;10.47;;;7.43;;
4057;SDS011;2044;48.692;9.020;2023-06-26T01:31:10;10.40;;;7.27;;
4057;SDS011;2044;48.692;9.020;2023-06-26T01:33:38;11.93;;;7.60;;
4057;SDS011;2044;48.692;9.020;2023-06-26T01:36:06;10.73;;;7.77;;
4057;SDS011;2044;48.692;9.020;2023-06-26T01:38:33;10.90;;;7.40;;
4057;SDS011;2044;48.692;9.020;2023-06-26T01:41:00;10.87;;;7.97;;
4057;SDS011;2044;48.692;9.020;2023-06-26T01:43:31;10.83;;;8.00;;
4057;SDS011;2044;48.692;9.020;2023-06-26T01:46:03;11.27;;;7.60;;
4057;SDS011;2044;48.692;9.020;2023-06-26T01:48:33;11.13;;;7.23;;
4057;SDS011;2044;48.692;9.020;2023-06-26T01:51:05;8.67;;;6.90;;
4057;SDS011;2044;48.692;9.020;2023-06-26T01:53:34;10.33;;;7.27;;
4057;SDS011;2044;48.692;9.020;2023-06-26T01:56:06;10.00;;;6.83;;
4057;SDS011;2044;48.692;9.020;2023-06-26T01:58:39;9.90;;;7.20;;
4057;SDS011;2044;48.692;9.020;2023-06-26T02:01:07;9.10;;;6.63;;
4057;SDS011;2044;48.692;9.020;2023-06-26T02:03:34;11.40;;;7.90;;
4057;SDS011;2044;48.692;9.020;2023-06-26T02:06:01;12.10;;;8.23;;
4057;SDS011;2044;48.692;9.020;2023-06-26T02:08:28;11.70;;;8.03;;
4057;SDS011;2044;48.692;9.020;2023-06-26T02:10:54;12.67;;;7.60;;
4057;SDS011;2044;48.692;9.020;2023-06-26T02:13:21;10.80;;;7.53;;
4057;SDS011;2044;48.692;9.020;2023-06-26T02:15:49;12.93;;;7.93;;
4057;SDS011;2044;48.692;9.020;2023-06-26T02:18:16;10.60;;;7.70;;
4057;SDS011;2044;48.692;9.020;2023-06-26T02:20:43;14.50;;;9.50;;
4057;SDS011;2044;48.692;9.020;2023-06-26T02:23:10;12.40;;;7.90;;
4057;SDS011;2044;48.692;9.020;2023-06-26T02:25:37;10.70;;;7.80;;
4057;SDS011;2044;48.692;9.020;2023-06-26T02:28:04;11.80;;;7.20;;
4057;SDS011;2044;48.692;9.020;2023-06-26T02:30:31;11.90;;;8.40;;
4057;SDS011;2044;48.692;9.020;2023-06-26T02:32:59;10.40;;;7.37;;
4057;SDS011;2044;48.692;9.020;2023-06-26T02:35:26;10.97;;;7.67;;
4057;SDS011;2044;48.692;9.020;2023-06-26T02:37:52;12.00;;;7.63;;
4057;SDS011;2044;48.692;9.020;2023-06-26T02:40:19;10.00;;;7.00;;
4057;SDS011;2044;48.692;9.020;2023-06-26T02:42:50;10.87;;;7.30;;
4057;SDS011;2044;48.692;9.020;2023-06-26T02:45:16;11.47;;;7.37;;
4057;SDS011;2044;48.692;9.020;2023-06-26T02:47:43;10.93;;;6.93;;
4057;SDS011;2044;48.692;9.020;2023-06-26T02:50:12;12.13;;;7.80;;
4057;SDS011;2044;48.692;9.020;2023-06-26T02:52:39;12.53;;;7.47;;
4057;SDS011;2044;48.692;9.020;2023-06-26T02:55:05;11.93;;;8.07;;
4057;SDS011;2044;48.692;9.020;2023-06-26T02:57:32;9.80;;;6.87;;
4057;SDS011;2044;48.692;9.020;2023-06-26T02:59:59;12.70;;;7.50;;
4057;SDS011;2044;48.692;9.020;2023-06-26T03:02:26;12.50;;;8.07;;
4057;SDS011;2044;48.692;9.020;2023-06-26T03:04:53;11.60;;;7.37;;
4057;SDS011;2044;48.692;9.020;2023-06-26T03:07:21;11.87;;;8.40;;
4057;SDS011;2044;48.692;9.020;2023-06-26T03:09:47;9.03;;;6.93;;
4057;SDS011;2044;48.692;9.020;2023-06-26T03:12:14;13.00;;;8.90;;
4057;SDS011;2044;48.692;9.020;2023-06-26T03:14:41;11.17;;;7.60;;
4057;SDS011;2044;48.692;9.020;2023-06-26T03:17:08;13.07;;;8.23;;
4057;SDS011;2044;48.692;9.020;2023-06-26T03:19:34;12.43;;;8.23;;
4057;SDS011;2044;48.692;9.020;2023-06-26T03:22:01;14.33;;;8.70;;
4057;SDS011;2044;48.692;9.020;2023-06-26T03:24:30;14.00;;;8.30;;
4057;SDS011;2044;48.692;9.020;2023-06-26T03:26:56;19.80;;;8.10;;
4057;SDS011;2044;48.692;9.020;2023-06-26T03:29:23;10.17;;;7.90;;
4057;SDS011;2044;48.692;9.020;2023-06-26T03:31:50;13.03;;;7.37;;
4057;SDS011;2044;48.692;9.020;2023-06-26T03:34:17;11.20;;;7.23;;
4057;SDS011;2044;48.692;9.020;2023-06-26T03:36:45;12.90;;;8.30;;
4057;SDS011;2044;48.692;9.020;2023-06-26T03:39:12;12.40;;;7.87;;
4057;SDS011;2044;48.692;9.020;2023-06-26T03:41:40;12.33;;;8.60;;
4057;SDS011;2044;48.692;9.020;2023-06-26T03:44:06;9.50;;;7.60;;
4057;SDS011;2044;48.692;9.020;2023-06-26T03:46:33;10.90;;;8.70;;
4057;SDS011;2044;48.692;9.020;2023-06-26T03:49:00;11.00;;;7.50;;
4057;SDS011;2044;48.692;9.020;2023-06-26T03:51:26;13.10;;;9.20;;
4057;SDS011;2044;48.692;9.020;2023-06-26T03:53:54;10.30;;;7.40;;
4057;SDS011;2044;48.692;9.020;2023-06-26T03:56:20;12.60;;;8.00;;
4057;SDS011;2044;48.692;9.020;2023-06-26T03:58:48;12.37;;;8.20;;
4057;SDS011;2044;48.692;9.020;2023-06-26T04:01:15;14.23;;;9.10;;
4057;SDS011;2044;48.692;9.020;2023-06-26T04:03:42;12.37;;;8.47;;
4057;SDS011;2044;48.692;9.020;2023-06-26T04:06:09;11.97;;;9.37;;
4057;SDS011;2044;48.692;9.020;2023-06-26T04:08:36;16.67;;;9.30;;
4057;SDS011;2044;48.692;9.020;2023-06-26T04:11:03;13.00;;;10.00;;
4057;SDS011;2044;48.692;9.020;2023-06-26T04:13:29;10.80;;;8.80;;
4057;SDS011;2044;48.692;9.020;2023-06-26T04:15:57;10.90;;;9.70;;
4057;SDS011;2044;48.692;9.020;2023-06-26T04:18:24;10.57;;;9.57;;
4057;SDS011;2044;48.692;9.020;2023-06-26T04:21:04;14.07;;;10.40;;
4057;SDS011;2044;48.692;9.020;2023-06-26T04:23:33;13.07;;;11.47;;
4057;SDS011;2044;48.692;9.020;2023-06-26T04:26:00;12.50;;;11.20;;
4057;SDS011;2044;48.692;9.020;2023-06-26T04:28:27;15.20;;;12.00;;
4057;SDS011;2044;48.692;9.020;2023-06-26T04:30:54;12.53;;;11.30;;
4057;SDS011;2044;48.692;9.020;2023-06-26T04:33:22;13.57;;;12.30;;
4057;SDS011;2044;48.692;9.020;2023-06-26T04:35:50;14.47;;;13.07;;
4057;SDS011;2044;48.692;9.020;2023-06-26T04:38:18;13.90;;;12.53;;
4057;SDS011;2044;48.692;9.020;2023-06-26T04:40:45;15.73;;;14.03;;
4057;SDS011;2044;48.692;9.020;2023-06-26T04:43:12;15.27;;;13.87;;
4057;SDS011;2044;48.692;9.020;2023-06-26T04:45:39;16.50;;;14.93;;
4057;SDS011;2044;48.692;9.020;2023-06-26T04:48:06;15.70;;;14.40;;
4057;SDS011;2044;48.692;9.020;2023-06-26T04:50:35;15.80;;;14.50;;
4057;SDS011;2044;48.692;9.020;2023-06-26T04:53:01;16.40;;;14.83;;
4057;SDS011;2044;48.692;9.020;2023-06-26T04:55:28;15.70;;;14.40;;
4057;SDS011;2044;48.692;9.020;2023-06-26T04:57:55;15.10;;;14.00;;
4057;SDS011;2044;48.692;9.020;2023-06-26T05:00:22;16.07;;;14.67;;
4057;SDS011;2044;48.692;9.020;2023-06-26T05:02:50;16.27;;;15.07;;
4057;SDS011;2044;48.692;9.020;2023-06-26T05:05:23;16.27;;;14.97;;
4057;SDS011;2044;48.692;9.020;2023-06-26T05:07:53;16.43;;;15.00;;
4057;SDS011;2044;48.692;9.020;2023-06-26T05:10:20;17.13;;;15.83;;
4057;SDS011;2044;48.692;9.020;2023-06-26T05:12:47;15.80;;;14.60;;
4057;SDS011;2044;48.692;9.020;2023-06-26T05:15:14;15.73;;;14.53;;
4057;SDS011;2044;48.692;9.020;2023-06-26T05:17:41;16.20;;;14.80;;
4057;SDS011;2044;48.692;9.020;2023-06-26T05:20:08;15.17;;;13.97;;
4057;SDS011;2044;48.692;9.020;2023-06-26T05:22:35;14.90;;;13.70;;
4057;SDS011;2044;48.692;9.020;2023-06-26T05:25:06;15.10;;;13.90;;
4057;SDS011;2044;48.692;9.020;2023-06-26T05:27:35;15.10;;;14.00;;
4057;SDS011;2044;48.692;9.020;2023-06-26T05:30:02;13.70;;;12.80;;
4057;SDS011;2044;48.692;9.020;2023-06-26T05:32:29;14.87;;;13.67;;
4057;SDS011;2044;48.692;9.020;2023-06-26T05:34:59;15.30;;;14.20;;
4057;SDS011;2044;48.692;9.020;2023-06-26T05:37:28;15.10;;;14.10;;
4057;SDS011;2044;48.692;9.020;2023-06-26T05:39:57;15.20;;;14.20;;
4057;SDS011;2044;48.692;9.020;2023-06-26T05:42:25;15.17;;;14.13;;
4057;SDS011;2044;48.692;9.020;2023-06-26T05:44:53;14.63;;;13.63;;
4057;SDS011;2044;48.692;9.020;2023-06-26T05:47:19;14.90;;;13.90;;
4057;SDS011;2044;48.692;9.020;2023-06-26T05:49:46;15.50;;;14.30;;
4057;SDS011;2044;48.692;9.020;2023-06-26T05:52:13;14.30;;;13.30;;
4057;SDS011;2044;48.692;9.020;2023-06-26T05:54:41;15.07;;;14.03;;
4057;SDS011;2044;48.692;9.020;2023-06-26T05:57:08;12.73;;;11.90;;
4057;SDS011;2044;48.692;9.020;2023-06-26T05:59:36;13.80;;;12.80;;
4057;SDS011;2044;48.692;9.020;2023-06-26T06:02:06;13.77;;;12.60;;
4057;SDS011;2044;48.692;9.020;2023-06-26T06:04:33;13.10;;;12.10;;
4057;SDS011;2044;48.692;9.020;2023-06-26T06:07:00;12.67;;;11.73;;
4057;SDS011;2044;48.692;9.020;2023-06-26T06:09:27;13.30;;;12.30;;
4057;SDS011;2044;48.692;9.020;2023-06-26T06:11:54;13.30;;;12.40;;
4057;SDS011;2044;48.692;9.020;2023-06-26T06:14:21;13.30;;;12.37;;
4057;SDS011;2044;48.692;9.020;2023-06-26T06:16:49;13.23;;;12.33;;
4057;SDS011;2044;48.692;9.020;2023-06-26T06:19:15;13.00;;;12.13;;
4057;SDS011;2044;48.692;9.020;2023-06-26T06:21:42;13.40;;;12.40;;
4057;SDS011;2044;48.692;9.020;2023-06-26T06:24:09;11.97;;;11.20;;
4057;SDS011;2044;48.692;9.020;2023-06-26T06:26:35;12.07;;;11.17;;
4057;SDS011;2044;48.692;9.020;2023-06-26T06:29:02;13.37;;;12.33;;
4057;SDS011;2044;48.692;9.020;2023-06-26T06:31:29;13.53;;;12.43;;
4057;SDS011;2044;48.692;9.020;2023-06-26T06:33:57;13.13;;;12.23;;
4057;SDS011;2044;48.692;9.020;2023-06-26T06:36:24;12.00;;;11.20;;
4057;SDS011;2044;48.692;9.020;2023-06-26T06:38:50;12.03;;;11.23;;
4057;SDS011;2044;48.692;9.020;2023-06-26T06:41:18;12.83;;;11.93;;
4057;SDS011;2044;48.692;9.020;2023-06-26T06:43:45;13.63;;;12.43;;
4057;SDS011;2044;48.692;9.020;2023-06-26T06:46:12;12.10;;;11.30;;
4057;SDS011;2044;48.692;9.020;2023-06-26T06:48:39;12.87;;;11.87;;
4057;SDS011;2044;48.692;9.020;2023-06-26T06:51:07;12.80;;;11.93;;
4057;SDS011;2044;48.692;9.020;2023-06-26T06:53:34;13.37;;;12.37;;
4057;SDS011;2044;48.692;9.020;2023-06-26T06:56:01;12.00;;;11.17;;
4057;SDS011;2044;48.692;9.020;2023-06-26T06:58:28;12.73;;;11.83;;
4057;SDS011;2044;48.692;9.020;2023-06-26T07:00:56;12.90;;;11.70;;
4057;SDS011;2044;48.692;9.020;2023-06-26T07:03:23;12.50;;;11.60;;
4057;SDS011;2044;48.692;9.020;2023-06-26T07:05:50;12.43;;;11.60;;
4057;SDS011;2044;48.692;9.020;2023-06-26T07:08:18;12.83;;;11.93;;
4057;SDS011;2044;48.692;9.020;2023-06-26T07:10:45;12.50;;;11.60;;
4057;SDS011;2044;48.692;9.020;2023-06-26T07:13:11;13.13;;;12.03;;
4057;SDS011;2044;48.692;9.020;2023-06-26T07:15:38;13.03;;;11.80;;
4057;SDS011;2044;48.692;9.020;2023-06-26T07:18:06;13.20;;;12.10;;
4057;SDS011;2044;48.692;9.020;2023-06-26T07:20:33;12.30;;;11.50;;
4057;SDS011;2044;48.692;9.020;2023-06-26T07:22:59;12.93;;;11.80;;
4057;SDS011;2044;48.692;9.020;2023-06-26T07:25:27;12.63;;;11.73;;
4057;SDS011;2044;48.692;9.020;2023-06-26T07:27:54;13.60;;;11.57;;
4057;SDS011;2044;48.692;9.020;2023-06-26T07:30:21;12.37;;;11.57;;
4057;SDS011;2044;48.692;9.020;2023-06-26T07:32:49;12.10;;;11.40;;
4057;SDS011;2044;48.692;9.020;2023-06-26T07:35:16;11.90;;;11.10;;
4057;SDS011;2044;48.692;9.020;2023-06-26T07:37:43;13.00;;;12.00;;
4057;SDS011;2044;48.692;9.020;2023-06-26T07:40:10;12.43;;;11.63;;
4057;SDS011;2044;48.692;9.020;2023-06-26T07:42:39;12.40;;;11.60;;
4057;SDS011;2044;48.692;9.020;2023-06-26T07:45:06;11.80;;;11.00;;
4057;SDS011;2044;48.692;9.020;2023-06-26T07:47:36;11.30;;;10.63;;
4057;SDS011;2044;48.692;9.020;2023-06-26T07:50:03;12.17;;;11.37;;
4057;SDS011;2044;48.692;9.020;2023-06-26T07:52:30;12.00;;;11.20;;
4057;SDS011;2044;48.692;9.020;2023-06-26T07:54:56;12.33;;;11.30;;
4057;SDS011;2044;48.692;9.020;2023-06-26T07:57:23;12.20;;;11.50;;
4057;SDS011;2044;48.692;9.020;2023-06-26T07:59:52;11.43;;;10.73;;
4057;SDS011;2044;48.692;9.020;2023-06-26T08:02:18;11.77;;;10.97;;
4057;SDS011;2044;48.692;9.020;2023-06-26T08:04:45;11.20;;;10.50;;
4057;SDS011;2044;48.692;9.020;2023-06-26T08:07:12;11.10;;;10.47;;
4057;SDS011;2044;48.692;9.020;2023-06-26T08:09:39;11.27;;;10.20;;
4057;SDS011;2044;48.692;9.020;2023-06-26T08:12:07;11.20;;;10.47;;
4057;SDS011;2044;48.692;9.020;2023-06-26T08:14:34;10.53;;;9.83;;
4057;SDS011;2044;48.692;9.020;2023-06-26T08:17:02;9.70;;;9.10;;
4057;SDS011;2044;48.692;9.020;2023-06-26T08:19:29;10.40;;;9.70;;
4057;SDS011;2044;48.692;9.020;2023-06-26T08:21:56;10.37;;;9.77;;
4057;SDS011;2044;48.692;9.020;2023-06-26T08:24:23;10.67;;;10.07;;
4057;SDS011;2044;48.692;9.020;2023-06-26T08:26:49;10.43;;;9.80;;
4057;SDS011;2044;48.692;9.020;2023-06-26T08:29:16;10.20;;;9.70;;
4057;SDS011;2044;48.692;9.020;2023-06-26T08:31:43;10.57;;;9.87;;
4057;SDS011;2044;48.692;9.020;2023-06-26T08:34:11;10.43;;;9.83;;
4057;SDS011;2044;48.692;9.020;2023-06-26T08:36:38;10.07;;;9.47;;
4057;SDS011;2044;48.692;9.020;2023-06-26T08:39:04;10.33;;;9.77;;
4057;SDS011;2044;48.692;9.020;2023-06-26T08:41:33;10.73;;;10.03;;
4057;SDS011;2044;48.692;9.020;2023-06-26T08:44:01;10.60;;;10.00;;
4057;SDS011;2044;48.692;9.020;2023-06-26T08:46:28;10.17;;;9.53;;
4057;SDS011;2044;48.692;9.020;2023-06-26T08:48:56;10.73;;;10.13;;
4057;SDS011;2044;48.692;9.020;2023-06-26T08:51:28;10.40;;;9.80;;
4057;SDS011;2044;48.692;9.020;2023-06-26T08:54:00;10.23;;;9.63;;
4057;SDS011;2044;48.692;9.020;2023-06-26T08:56:28;11.13;;;10.20;;
4057;SDS011;2044;48.692;9.020;2023-06-26T08:59:00;10.57;;;9.97;;
4057;SDS011;2044;48.692;9.020;2023-06-26T09:01:27;10.10;;;9.50;;
4057;SDS011;2044;48.692;9.020;2023-06-26T09:03:54;10.80;;;10.10;;
4057;SDS011;2044;48.692;9.020;2023-06-26T09:06:21;10.40;;;9.80;;
4057;SDS011;2044;48.692;9.020;2023-06-26T09:08:49;10.63;;;9.93;;
4057;SDS011;2044;48.692;9.020;2023-06-26T09:11:16;10.63;;;9.90;;
4057;SDS011;2044;48.692;9.020;2023-06-26T09:13:43;10.10;;;9.50;;
4057;SDS011;2044;48.692;9.020;2023-06-26T09:16:10;10.00;;;9.30;;
4057;SDS011;2044;48.692;9.020;2023-06-26T09:18:37;10.37;;;9.70;;
4057;SDS011;2044;48.692;9.020;2023-06-26T09:21:06;11.30;;;10.40;;
4057;SDS011;2044;48.692;9.020;2023-06-26T09:23:34;9.37;;;8.80;;
4057;SDS011;2044;48.692;9.020;2023-06-26T09:26:03;9.93;;;9.33;;
4057;SDS011;2044;48.692;9.020;2023-06-26T09:28:31;10.90;;;10.10;;
4057;SDS011;2044;48.692;9.020;2023-06-26T09:31:02;9.57;;;8.87;;
4057;SDS011;2044;48.692;9.020;2023-06-26T09:33:32;10.27;;;9.67;;
4057;SDS011;2044;48.692;9.020;2023-06-26T09:36:01;10.70;;;10.00;;
4057;SDS011;2044;48.692;9.020;2023-06-26T09:38:30;9.77;;;9.17;;
4057;SDS011;2044;48.692;9.020;2023-06-26T09:40:57;10.30;;;9.70;;
4057;SDS011;2044;48.692;9.020;2023-06-26T09:43:25;10.73;;;10.13;;
4057;SDS011;2044;48.692;9.020;2023-06-26T09:45:52;10.93;;;10.33;;
4057;SDS011;2044;48.692;9.020;2023-06-26T09:48:20;11.30;;;10.30;;
4057;SDS011;2044;48.692;9.020;2023-06-26T09:50:47;10.93;;;10.17;;
4057;SDS011;2044;48.692;9.020;2023-06-26T09:53:15;10.70;;;10.10;;
4057;SDS011;2044;48.692;9.020;2023-06-26T09:55:43;10.00;;;9.30;;
4057;SDS011;2044;48.692;9.020;2023-06-26T09:58:11;9.93;;;9.33;;
4057;SDS011;2044;48.692;9.020;2023-06-26T10:00:41;11.50;;;10.80;;
4057;SDS011;2044;48.692;9.020;2023-06-26T10:03:09;10.67;;;9.87;;
4057;SDS011;2044;48.692;9.020;2023-06-26T10:05:36;10.60;;;9.90;;
4057;SDS011;2044;48.692;9.020;2023-06-26T10:08:04;11.37;;;10.47;;
4057;SDS011;2044;48.692;9.020;2023-06-26T10:10:31;11.17;;;10.17;;
4057;SDS011;2044;48.692;9.020;2023-06-26T10:13:00;11.17;;;10.50;;
4057;SDS011;2044;48.692;9.020;2023-06-26T10:15:34;10.90;;;10.20;;
4057;SDS011;2044;48.692;9.020;2023-06-26T10:18:04;10.87;;;10.23;;
4057;SDS011;2044;48.692;9.020;2023-06-26T10:20:31;11.03;;;10.33;;
4057;SDS011;2044;48.692;9.020;2023-06-26T10:22:58;11.50;;;10.70;;
4057;SDS011;2044;48.692;9.020;2023-06-26T10:25:27;10.70;;;10.00;;
4057;SDS011;2044;48.692;9.020;2023-06-26T10:27:57;10.87;;;9.87;;
4057;SDS011;2044;48.692;9.020;2023-06-26T10:30:28;11.50;;;10.63;;
4057;SDS011;2044;48.692;9.020;2023-06-26T10:32:57;12.83;;;11.73;;
4057;SDS011;2044;48.692;9.020;2023-06-26T10:35:28;10.83;;;10.13;;
4057;SDS011;2044;48.692;9.020;2023-06-26T10:37:59;11.10;;;9.83;;
4057;SDS011;2044;48.692;9.020;2023-06-26T10:40:28;11.13;;;10.23;;
4057;SDS011;2044;48.692;9.020;2023-06-26T10:43:07;10.03;;;9.30;;
4057;SDS011;2044;48.692;9.020;2023-06-26T10:45:35;11.73;;;10.87;;
4057;SDS011;2044;48.692;9.020;2023-06-26T10:48:02;11.97;;;11.07;;
4057;SDS011;2044;48.692;9.020;2023-06-26T10:50:31;11.77;;;10.87;;
4057;SDS011;2044;48.692;9.020;2023-06-26T10:53:14;11.00;;;10.20;;
4057;SDS011;2044;48.692;9.020;2023-06-26T10:55:48;10.93;;;10.03;;
4057;SDS011;2044;48.692;9.020;2023-06-26T10:58:39;11.70;;;10.60;;
4057;SDS011;2044;48.692;9.020;2023-06-26T11:01:23;11.97;;;10.97;;
4057;SDS011;2044;48.692;9.020;2023-06-26T11:04:00;11.20;;;10.33;;
4057;SDS011;2044;48.692;9.020;2023-06-26T11:06:31;9.70;;;9.00;;
4057;SDS011;2044;48.692;9.020;2023-06-26T11:09:00;10.97;;;10.07;;
4057;SDS011;2044;48.692;9.020;2023-06-26T11:14:24;10.20;;;9.50;;
4057;SDS011;2044;48.692;9.020;2023-06-26T11:16:52;10.50;;;9.70;;
4057;SDS011;2044;48.692;9.020;2023-06-26T11:19:21;11.70;;;10.50;;
4057;SDS011;2044;48.692;9.020;2023-06-26T11:21:49;10.43;;;9.73;;
4057;SDS011;2044;48.692;9.020;2023-06-26T11:24:16;11.67;;;10.57;;
4057;SDS011;2044;48.692;9.020;2023-06-26T11:26:44;10.30;;;9.50;;
4057;SDS011;2044;48.692;9.020;2023-06-26T11:29:11;11.13;;;10.23;;
4057;SDS011;2044;48.692;9.020;2023-06-26T11:31:39;11.93;;;11.07;;
4057;SDS011;2044;48.692;9.020;2023-06-26T11:34:07;9.83;;;8.97;;
4057;SDS011;2044;48.692;9.020;2023-06-26T11:36:36;11.30;;;10.40;;
4057;SDS011;2044;48.692;9.020;2023-06-26T11:39:05;10.23;;;9.53;;
4057;SDS011;2044;48.692;9.020;2023-06-26T11:41:33;10.23;;;9.53;;
4057;SDS011;2044;48.692;9.020;2023-06-26T11:44:00;11.20;;;10.20;;
4057;SDS011;2044;48.692;9.020;2023-06-26T11:46:27;11.13;;;10.00;;
4057;SDS011;2044;48.692;9.020;2023-06-26T11:48:54;10.67;;;9.90;;
4057;SDS011;2044;48.692;9.020;2023-06-26T11:51:21;9.67;;;8.87;;
4057;SDS011;2044;48.692;9.020;2023-06-26T11:53:48;10.57;;;9.87;;
4057;SDS011;2044;48.692;9.020;2023-06-26T11:56:24;11.37;;;10.53;;
4057;SDS011;2044;48.692;9.020;2023-06-26T11:58:57;10.37;;;9.53;;
4057;SDS011;2044;48.692;9.020;2023-06-26T12:01:26;20.83;;;12.10;;
4057;SDS011;2044;48.692;9.020;2023-06-26T12:03:58;11.20;;;10.40;;
4057;SDS011;2044;48.692;9.020;2023-06-26T12:06:26;10.27;;;9.50;;
4057;SDS011;2044;48.692;9.020;2023-06-26T12:08:54;10.20;;;9.40;;
4057;SDS011;2044;48.692;9.020;2023-06-26T12:11:23;10.73;;;9.93;;
4057;SDS011;2044;48.692;9.020;2023-06-26T12:13:50;10.20;;;9.30;;
4057;SDS011;2044;48.692;9.020;2023-06-26T12:16:18;11.80;;;11.00;;
4057;SDS011;2044;48.692;9.020;2023-06-26T12:18:46;10.73;;;9.87;;
4057;SDS011;2044;48.692;9.020;2023-06-26T12:21:27;11.03;;;10.13;;
4057;SDS011;2044;48.692;9.020;2023-06-26T12:23:58;10.07;;;9.27;;
4057;SDS011;2044;48.692;9.020;2023-06-26T12:26:26;10.60;;;9.80;;
4057;SDS011;2044;48.692;9.020;2023-06-26T12:28:54;11.17;;;10.13;;
4057;SDS011;2044;48.692;9.020;2023-06-26T12:31:28;10.80;;;10.10;;
4057;SDS011;2044;48.692;9.020;2023-06-26T12:33:55;10.13;;;9.33;;
4057;SDS011;2044;48.692;9.020;2023-06-26T12:36:22;10.07;;;9.27;;
4057;SDS011;2044;48.692;9.020;2023-06-26T12:38:49;10.67;;;9.97;;
4057;SDS011;2044;48.692;9.020;2023-06-26T12:41:18;9.50;;;8.90;;
4057;SDS011;2044;48.692;9.020;2023-06-26T12:43:47;10.10;;;9.40;;
4057;SDS011;2044;48.692;9.020;2023-06-26T12:46:14;10.77;;;9.97;;
4057;SDS011;2044;48.692;9.020;2023-06-26T12:48:41;11.47;;;10.37;;
4057;SDS011;2044;48.692;9.020;2023-06-26T12:51:11;10.57;;;9.50;;
4057;SDS011;2044;48.692;9.020;2023-06-26T12:53:38;11.00;;;10.10;;
4057;SDS011;2044;48.692;9.020;2023-06-26T12:56:06;10.30;;;9.60;;
4057;SDS011;2044;48.692;9.020;2023-06-26T12:58:33;10.90;;;10.00;;
4057;SDS011;2044;48.692;9.020;2023-06-26T13:01:02;10.77;;;10.00;;
4057;SDS011;2044;48.692;9.020;2023-06-26T13:03:32;10.37;;;9.67;;
4057;SDS011;2044;48.692;9.020;2023-06-26T13:05:59;10.03;;;9.27;;
4057;SDS011;2044;48.692;9.020;2023-06-26T13:08:26;10.70;;;10.00;;
4057;SDS011;2044;48.692;9.020;2023-06-26T13:10:54;12.07;;;10.97;;
4057;SDS011;2044;48.692;9.020;2023-06-26T13:13:21;10.33;;;9.43;;
4057;SDS011;2044;48.692;9.020;2023-06-26T13:15:48;10.27;;;9.50;;
4057;SDS011;2044;48.692;9.020;2023-06-26T13:18:17;10.30;;;9.40;;
4057;SDS011;2044;48.692;9.020;2023-06-26T13:20:43;10.43;;;9.53;;
4057;SDS011;2044;48.692;9.020;2023-06-26T13:23:10;10.47;;;9.57;;
4057;SDS011;2044;48.692;9.020;2023-06-26T13:25:37;11.07;;;9.13;;
4057;SDS011;2044;48.692;9.020;2023-06-26T13:28:04;10.00;;;9.30;;
4057;SDS011;2044;48.692;9.020;2023-06-26T13:30:31;10.07;;;9.37;;
4057;SDS011;2044;48.692;9.020;2023-06-26T13:32:58;8.80;;;8.20;;
4057;SDS011;2044;48.692;9.020;2023-06-26T13:35:26;8.87;;;8.10;;
4057;SDS011;2044;48.692;9.020;2023-06-26T13:37:54;10.73;;;9.13;;
4057;SDS011;2044;48.692;9.020;2023-06-26T13:40:21;10.57;;;9.67;;
4057;SDS011;2044;48.692;9.020;2023-06-26T13:42:47;9.60;;;8.80;;
4057;SDS011;2044;48.692;9.020;2023-06-26T13:45:14;9.53;;;8.90;;
4057;SDS011;2044;48.692;9.020;2023-06-26T13:47:41;9.60;;;8.90;;
4057;SDS011;2044;48.692;9.020;2023-06-26T13:50:09;10.30;;;9.40;;
4057;SDS011;2044;48.692;9.020;2023-06-26T13:52:37;10.70;;;9.80;;
4057;SDS011;2044;48.692;9.020;2023-06-26T13:55:04;10.17;;;9.47;;
4057;SDS011;2044;48.692;9.020;2023-06-26T13:57:32;9.97;;;9.00;;
4057;SDS011;2044;48.692;9.020;2023-06-26T13:59:59;9.37;;;8.70;;
4057;SDS011;2044;48.692;9.020;2023-06-26T14:02:28;9.97;;;9.17;;
4057;SDS011;2044;48.692;9.020;2023-06-26T14:04:55;9.20;;;8.60;;
4057;SDS011;2044;48.692;9.020;2023-06-26T14:07:22;10.10;;;9.30;;
4057;SDS011;2044;48.692;9.020;2023-06-26T14:09:51;7.50;;;7.00;;
4057;SDS011;2044;48.692;9.020;2023-06-26T14:12:17;9.13;;;8.50;;
4057;SDS011;2044;48.692;9.020;2023-06-26T14:14:44;8.20;;;7.70;;
4057;SDS011;2044;48.692;9.020;2023-06-26T14:17:11;8.80;;;8.10;;
4057;SDS011;2044;48.692;9.020;2023-06-26T14:19:41;8.10;;;7.63;;
4057;SDS011;2044;48.692;9.020;2023-06-26T14:22:08;9.90;;;9.00;;
4057;SDS011;2044;48.692;9.020;2023-06-26T14:24:35;9.53;;;8.90;;
4057;SDS011;2044;48.692;9.020;2023-06-26T14:27:03;8.70;;;8.00;;
4057;SDS011;2044;48.692;9.020;2023-06-26T14:29:30;8.87;;;8.17;;
4057;SDS011;2044;48.692;9.020;2023-06-26T14:31:57;9.43;;;8.57;;
4057;SDS011;2044;48.692;9.020;2023-06-26T14:34:25;8.50;;;7.70;;
4057;SDS011;2044;48.692;9.020;2023-06-26T14:36:51;9.30;;;8.50;;
4057;SDS011;2044;48.692;9.020;2023-06-26T14:39:18;9.07;;;8.40;;
4057;SDS011;2044;48.692;9.020;2023-06-26T14:41:45;9.07;;;8.33;;
4057;SDS011;2044;48.692;9.020;2023-06-26T14:44:15;7.97;;;7.47;;
4057;SDS011;2044;48.692;9.020;2023-06-26T14:46:42;7.83;;;7.20;;
4057;SDS011;2044;48.692;9.020;2023-06-26T14:49:09;6.90;;;6.50;;
4057;SDS011;2044;48.692;9.020;2023-06-26T14:51:37;7.90;;;7.27;;
4057;SDS011;2044;48.692;9.020;2023-06-26T14:54:05;7.03;;;6.53;;
4057;SDS011;2044;48.692;9.020;2023-06-26T14:56:31;7.53;;;7.03;;
4057;SDS011;2044;48.692;9.020;2023-06-26T14:58:59;7.70;;;7.20;;
4057;SDS011;2044;48.692;9.020;2023-06-26T15:01:27;9.80;;;7.10;;
4057;SDS011;2044;48.692;9.020;2023-06-26T15:03:55;7.03;;;6.53;;